createdAt,value
2022-08-14T00:01:11.361Z,21.05
2022-08-14T00:03:40.445Z,21.12
2022-08-14T00:08:45.402Z,21.12
2022-08-14T00:11:14.093Z,21.19
2022-08-14T00:13:52.743Z,21.14
2022-08-14T00:16:40.886Z,21.21
2022-08-14T00:19:19.325Z,21.22
2022-08-14T00:21:48.035Z,21.21
2022-08-14T00:24:28.236Z,21.16
2022-08-14T00:26:57.423Z,21.12
2022-08-14T00:29:33.136Z,21.10
2022-08-14T00:32:50.609Z,21.17
2022-08-14T00:37:29.911Z,21.07
2022-08-14T00:40:00.296Z,20.98
2022-08-14T00:42:55.104Z,20.96
2022-08-14T00:55:23.366Z,20.62
2022-08-14T00:58:12.042Z,20.53
2022-08-14T01:00:50.874Z,20.60
2022-08-14T01:03:21.373Z,20.51
2022-08-14T01:08:51.856Z,20.37
2022-08-14T01:13:42.966Z,20.30
2022-08-14T01:19:01.367Z,20.27
2022-08-14T01:21:34.673Z,20.20
2022-08-14T01:24:09.846Z,20.12
2022-08-14T01:26:39.257Z,20.14
2022-08-14T01:29:10.845Z,20.03
2022-08-14T01:31:45.364Z,20.03
2022-08-14T01:35:18.572Z,20.00
2022-08-14T01:37:07.574Z,19.96
2022-08-14T01:39:39.096Z,20.03
2022-08-14T01:42:07.393Z,19.94
2022-08-14T01:44:38.873Z,19.99
2022-08-14T01:47:19.557Z,19.86
2022-08-14T01:50:01.407Z,19.85
2022-08-14T01:52:58.613Z,19.78
2022-08-14T01:55:23.289Z,19.71
2022-08-14T01:58:00.910Z,19.63
2022-08-14T02:00:39.963Z,19.65
2022-08-14T02:05:38.228Z,19.65
2022-08-14T02:10:47.304Z,19.54
2022-08-14T02:15:50.323Z,19.52
2022-08-14T02:23:29.161Z,19.45
2022-08-14T02:26:24.758Z,19.35
2022-08-14T02:31:42.051Z,19.38
2022-08-14T02:39:36.050Z,19.21
2022-08-14T02:42:05.621Z,19.23
2022-08-14T02:44:39.460Z,19.20
2022-08-14T02:47:15.053Z,19.18
2022-08-14T02:52:56.454Z,19.03
2022-08-14T02:55:19.850Z,19.11
2022-08-14T03:00:27.280Z,19.01
2022-08-14T03:02:58.658Z,18.98
2022-08-14T03:08:08.410Z,18.88
2022-08-14T03:10:41.949Z,18.89
2022-08-14T03:13:19.070Z,18.94
2022-08-14T03:18:18.950Z,18.91
2022-08-14T03:23:28.224Z,18.87
2022-08-14T03:25:57.896Z,18.82
2022-08-14T03:28:33.385Z,18.78
2022-08-14T03:31:01.813Z,18.79
2022-08-14T03:33:37.513Z,18.69
2022-08-14T03:37:50.852Z,18.58
2022-08-14T03:41:45.660Z,18.43
2022-08-14T03:45:25.271Z,18.47
2022-08-14T03:47:03.183Z,18.48
2022-08-14T03:49:31.315Z,18.40
2022-08-14T03:52:07.767Z,18.38
2022-08-14T03:54:52.880Z,18.40
2022-08-14T03:57:22.796Z,18.41
2022-08-14T03:59:51.673Z,18.36
2022-08-14T04:02:32.581Z,18.31
2022-08-14T04:05:08.163Z,18.32
2022-08-14T04:07:49.921Z,18.33
2022-08-14T04:10:32.236Z,18.37
2022-08-14T04:13:03.707Z,18.34
2022-08-14T04:15:56.575Z,18.36
2022-08-14T04:23:23.270Z,18.21
2022-08-14T04:25:54.096Z,18.25
2022-08-14T04:29:08.582Z,18.33
2022-08-14T04:33:40.490Z,18.30
2022-08-14T04:36:09.273Z,18.29
2022-08-14T04:39:01.350Z,18.38
2022-08-14T04:41:47.178Z,18.39
2022-08-14T04:44:36.037Z,18.31
2022-08-14T04:47:22.625Z,18.43
2022-08-14T04:49:57.213Z,18.43
2022-08-14T04:52:25.706Z,18.45
2022-08-14T04:59:53.188Z,18.64
2022-08-14T05:02:24.543Z,18.56
2022-08-14T05:04:56.741Z,18.59
2022-08-14T05:07:46.964Z,18.66
2022-08-14T05:13:13.449Z,18.65
2022-08-14T05:15:37.398Z,18.73
2022-08-14T05:18:17.350Z,18.69
2022-08-14T05:21:55.108Z,18.81
2022-08-14T05:23:41.924Z,18.84
2022-08-14T05:28:46.740Z,19.00
2022-08-14T05:31:20.800Z,19.01
2022-08-14T05:33:56.611Z,19.14
2022-08-14T05:36:27.112Z,19.15
2022-08-14T05:41:23.436Z,19.24
2022-08-14T05:44:05.307Z,19.27
2022-08-14T05:46:35.436Z,19.47
2022-08-14T05:49:05.592Z,19.38
2022-08-14T05:51:36.908Z,19.49
2022-08-14T05:54:13.678Z,19.38
2022-08-14T05:56:54.311Z,19.48
2022-08-14T05:59:36.623Z,19.59
2022-08-14T06:04:38.535Z,19.75
2022-08-14T06:07:06.622Z,19.86
2022-08-14T06:09:36.005Z,19.89
2022-08-14T06:12:09.540Z,19.99
2022-08-14T06:14:37.651Z,20.12
2022-08-14T06:17:08.349Z,20.30
2022-08-14T06:19:36.204Z,20.29
2022-08-14T06:22:04.567Z,20.20
2022-08-14T06:24:34.857Z,20.35
2022-08-14T06:32:38.853Z,20.61
2022-08-14T06:35:11.553Z,20.71
2022-08-14T06:37:42.539Z,20.68
2022-08-14T06:42:55.476Z,21.00
2022-08-14T06:45:26.068Z,21.11
2022-08-14T06:47:54.707Z,21.02
2022-08-14T06:50:27.908Z,21.11
2022-08-14T06:52:56.821Z,21.33
2022-08-14T06:55:28.331Z,21.53
2022-08-14T06:57:58.021Z,21.59
2022-08-14T07:03:17.270Z,21.73
2022-08-14T07:05:55.351Z,22.00
2022-08-14T07:08:31.207Z,22.34
2022-08-14T07:11:04.037Z,22.60
2022-08-14T07:16:05.477Z,23.08
2022-08-14T07:18:35.582Z,23.17
2022-08-14T07:21:07.322Z,23.26
2022-08-14T07:23:40.156Z,23.38
2022-08-14T07:26:13.620Z,23.44
2022-08-14T07:28:43.819Z,23.51
2022-08-14T07:31:13.452Z,23.43
2022-08-14T07:33:49.990Z,23.61
2022-08-14T07:36:27.545Z,23.75
2022-08-14T07:38:59.525Z,23.69
2022-08-14T07:41:31.225Z,24.18
2022-08-14T07:44:29.636Z,24.34
2022-08-14T07:46:50.953Z,24.33
2022-08-14T07:49:20.017Z,24.02
2022-08-14T07:54:23.396Z,24.34
2022-08-14T07:59:41.308Z,25.02
2022-08-14T08:02:19.651Z,25.63
2022-08-14T08:04:53.157Z,26.46
2022-08-14T08:07:29.554Z,26.93
2022-08-14T08:12:40.416Z,27.03
2022-08-14T08:15:08.919Z,27.28
2022-08-14T08:17:42.575Z,27.70
2022-08-14T08:20:20.164Z,28.04
2022-08-14T08:22:55.572Z,28.51
2022-08-14T08:25:24.544Z,28.42
2022-08-14T08:28:00.219Z,28.21
2022-08-14T08:39:14.464Z,29.22
2022-08-14T08:41:09.632Z,28.88
2022-08-14T08:43:46.219Z,28.92
2022-08-14T08:46:21.480Z,29.65
2022-08-14T08:51:31.136Z,29.32
2022-08-14T08:54:06.079Z,29.35
2022-08-14T08:56:39.540Z,30.51
2022-08-14T09:01:52.387Z,30.25
2022-08-14T09:04:26.446Z,30.39
2022-08-14T09:07:08.998Z,30.81
2022-08-14T09:12:22.776Z,31.07
2022-08-14T09:17:25.902Z,30.31
2022-08-14T09:19:54.585Z,31.98
2022-08-14T09:25:07.659Z,31.50
2022-08-14T09:27:36.325Z,31.56
2022-08-14T09:30:13.197Z,31.95
2022-08-14T09:38:30.182Z,31.92
2022-08-14T09:43:48.985Z,32.49
2022-08-14T09:48:59.821Z,32.25
2022-08-14T09:56:57.329Z,32.29
2022-08-14T10:01:57.244Z,32.31
2022-08-14T10:04:36.030Z,33.31
2022-08-14T10:17:50.670Z,32.16
2022-08-14T10:23:17.948Z,32.81
2022-08-14T10:25:50.648Z,32.25
2022-08-14T10:33:50.502Z,32.58
2022-08-14T10:36:34.754Z,31.86
2022-08-14T11:15:49.338Z,33.19
2022-08-14T11:25:53.022Z,33.44
2022-08-14T12:04:32.227Z,34.22
2022-08-14T12:11:59.673Z,33.11
2022-08-14T12:14:34.586Z,33.81
2022-08-14T13:44:37.638Z,34.86
2022-08-14T14:59:12.586Z,32.78
2022-08-14T15:01:41.515Z,32.86
2022-08-14T17:29:29.379Z,32.20
2022-08-14T18:25:02.776Z,29.50
2022-08-14T18:30:33.422Z,29.33
2022-08-14T18:35:45.683Z,29.03
2022-08-14T18:38:42.910Z,28.92
2022-08-14T18:55:59.972Z,28.17
2022-08-14T19:15:28.570Z,27.69
2022-08-14T19:18:14.585Z,27.62
2022-08-14T19:20:52.772Z,27.53
2022-08-14T19:26:36.632Z,27.40
2022-08-14T19:29:23.520Z,27.27
2022-08-14T19:37:10.375Z,27.06
2022-08-14T19:39:53.494Z,27.06
2022-08-14T19:44:58.050Z,26.93
2022-08-14T19:50:37.953Z,26.85
2022-08-14T19:53:16.546Z,26.92
2022-08-14T19:55:59.740Z,26.74
2022-08-14T19:58:54.993Z,26.75
2022-08-14T20:01:36.348Z,26.65
2022-08-14T20:04:46.624Z,26.61
2022-08-14T20:06:57.139Z,26.58
2022-08-14T20:11:09.594Z,26.49
2022-08-14T20:12:34.605Z,26.44
2022-08-14T20:15:08.777Z,26.38
2022-08-14T20:17:44.438Z,26.31
2022-08-14T20:20:20.995Z,26.21
2022-08-14T20:25:37.594Z,26.04
2022-08-14T20:31:13.707Z,25.94
2022-08-14T20:36:25.865Z,25.82
2022-08-14T20:49:16.767Z,25.60
2022-08-14T20:51:58.332Z,25.53
2022-08-14T20:54:34.291Z,25.48
2022-08-14T20:57:07.790Z,25.41
2022-08-14T20:59:43.369Z,25.31
2022-08-14T21:02:29.518Z,25.20
2022-08-14T21:05:00.682Z,25.11
2022-08-14T21:10:33.208Z,25.04
2022-08-14T21:15:57.823Z,24.80
2022-08-14T21:18:29.422Z,24.76
2022-08-14T21:20:59.093Z,24.80
2022-08-14T21:23:32.860Z,24.77
2022-08-14T21:26:05.388Z,24.69
2022-08-14T21:36:07.540Z,24.44
2022-08-14T21:38:38.154Z,24.34
2022-08-14T21:41:43.291Z,24.21
2022-08-14T21:46:49.659Z,24.22
2022-08-14T21:49:23.454Z,24.28
2022-08-14T21:51:59.921Z,24.17
2022-08-14T21:54:50.088Z,24.05
2022-08-14T22:00:35.996Z,23.98
2022-08-14T22:03:04.642Z,24.12
2022-08-14T22:08:07.460Z,23.99
2022-08-14T22:10:41.053Z,23.85
2022-08-14T22:13:11.294Z,23.78
2022-08-14T22:15:43.901Z,23.82
2022-08-14T22:18:20.345Z,23.79
2022-08-14T22:20:53.821Z,23.67
2022-08-14T22:23:25.850Z,23.47
2022-08-14T22:28:32.995Z,23.52
2022-08-14T22:38:54.065Z,23.48
2022-08-14T22:43:59.841Z,23.28
2022-08-14T22:46:27.875Z,23.33
2022-08-14T22:48:57.596Z,23.36
2022-08-14T22:56:29.142Z,23.52
2022-08-14T23:07:07.366Z,23.48
2022-08-14T23:09:56.264Z,23.48
2022-08-14T23:12:29.303Z,23.48
2022-08-14T23:14:59.278Z,23.46
2022-08-14T23:20:19.348Z,23.43
2022-08-14T23:22:51.305Z,23.36
2022-08-14T23:25:56.881Z,23.40
2022-08-14T23:28:34.010Z,23.32
2022-08-14T23:30:57.419Z,23.38
2022-08-14T23:33:28.897Z,23.36
2022-08-14T23:35:58.811Z,23.40
2022-08-14T23:38:30.805Z,23.37
2022-08-14T23:41:00.747Z,23.39
2022-08-14T23:43:31.350Z,23.44
2022-08-14T23:45:59.956Z,23.35
2022-08-14T23:48:28.690Z,23.33
2022-08-14T23:56:19.495Z,23.19
2022-08-14T23:58:59.060Z,23.20
